Texico, NM

7:36 PM MST on December 07, 2016 (GMT -0700)
Clovis Municipal

Weather History for KCVN - December, 2012

Change the Weather History Date:

Wednesday, December 12, 2012

  Actual Average Record
Temperature  
Mean Temperature 39 °F -  
Max Temperature 57 °F 50 °F 77 °F (1921)
Min Temperature 21 °F 25 °F -4 °F (1961)
Degree Days  
Heating Degree Days 26    
Moisture  
Dew Point 12 °F    
Average Humidity 37    
Maximum Humidity 63    
Minimum Humidity 17    
Precipitation  
Precipitation 0.00 in - - ()
Sea Level Pressure  
Sea Level Pressure 30.05 in    
Wind  
Wind Speed 15 mph (WSW)    
Max Wind Speed 29 mph    
Max Gust Speed 33 mph    
Visibility 10 miles    
Events      
Averages and records for this station are not official NWS values.
T = Trace of Precipitation, MM = Missing Value Source: NWS Daily Summary

Daily Weather History Graph

Daily Weather History Graph

Search for Another Location

Airport or City:

Trip Planner

Search our weather history database for the weather conditions in past years. The results will help you decide how hot, cold, wet, or windy it might be!

Date:

Astronomy

Dec. 12, 2012 Rise Set
Actual Time 6:49 AM MST 4:42 PM MST
Civil Twilight 6:21 AM MST 5:10 PM MST
Nautical Twilight 5:50 AM MST 5:42 PM MST
Astronomical Twilight 5:19 AM MST 6:12 PM MST
Moon 5:57 AM MST (12/12) 4:21 PM MST (12/12)
Length of Visible Light 10h 48m
Length of Day
9h 53m
Waning Crescent, 0% of the Moon is Illuminated
Dec 12
Waning Crescent
Dec 13
New
Dec 19
First Quarter
Dec 28
Full
Jan 4
Last Quarter

Hourly Weather History & Observations

Time (MST) Temp. Windchill Dew Point Humidity Pressure Visibility Wind Dir Wind Speed Gust Speed Precip Events Conditions
12:15 AM 23.0 °F 12.4 °F 8.6 °F 54% 30.07 in 10.0 mi SSW 10.4 mph - N/A   Clear
12:35 AM 21.2 °F 10.1 °F 8.6 °F 58% 30.06 in 10.0 mi SW 10.4 mph - N/A   Clear
12:55 AM 21.2 °F 10.1 °F 8.6 °F 58% 30.05 in 10.0 mi SW 10.4 mph - N/A   Clear
1:15 AM 21.2 °F 10.1 °F 8.6 °F 58% 30.05 in 10.0 mi SW 10.4 mph - N/A   Clear
1:35 AM 23.0 °F 11.1 °F 10.4 °F 59% 30.05 in 10.0 mi WSW 12.7 mph - N/A   Clear
1:55 AM 24.8 °F 13.4 °F 10.4 °F 54% 30.05 in 10.0 mi WSW 12.7 mph - N/A   Clear
2:15 AM 24.8 °F 12.9 °F 10.4 °F 54% 30.05 in 10.0 mi WSW 13.8 mph - N/A   Clear
2:35 AM 24.8 °F 13.4 °F 10.4 °F 54% 30.05 in 10.0 mi WSW 12.7 mph - N/A   Clear
2:55 AM 24.8 °F 14.0 °F 10.4 °F 54% 30.03 in 10.0 mi WSW 11.5 mph - N/A   Clear
3:15 AM 24.8 °F 12.9 °F 10.4 °F 54% 30.03 in 10.0 mi WSW 13.8 mph - N/A   Clear
3:35 AM 26.6 °F 14.7 °F 10.4 °F 51% 30.03 in 10.0 mi SW 15.0 mph - N/A   Clear
3:55 AM 24.8 °F 14.6 °F 10.4 °F 54% 30.03 in 10.0 mi SW 10.4 mph - N/A   Clear
4:15 AM 21.2 °F 8.9 °F 10.4 °F 63% 30.02 in 10.0 mi SW 12.7 mph - N/A   Clear
4:35 AM 23.0 °F 10.6 °F 10.4 °F 59% 30.02 in 10.0 mi SW 13.8 mph - N/A   Clear
4:55 AM 26.6 °F 13.4 °F 12.2 °F 55% 30.01 in 10.0 mi WSW 18.4 mph - N/A   Clear
5:15 AM 24.8 °F 11.9 °F 12.2 °F 59% 30.02 in 10.0 mi WSW 16.1 mph - N/A   Clear
5:35 AM 26.6 °F 14.3 °F 10.4 °F 51% 30.02 in 10.0 mi WSW 16.1 mph - N/A   Clear
5:55 AM 28.4 °F 15.1 °F 12.2 °F 51% 30.01 in 10.0 mi WSW 20.7 mph - N/A   Clear
6:15 AM 28.4 °F 14.7 °F 12.2 °F 51% 30.02 in 10.0 mi WSW 21.9 mph - N/A   Clear
6:35 AM 26.6 °F 13.1 °F 10.4 °F 51% 30.03 in 10.0 mi SW 19.6 mph - N/A   Clear
6:55 AM 26.6 °F 13.8 °F 10.4 °F 51% 30.04 in 10.0 mi WSW 17.3 mph - N/A   Clear
7:15 AM 26.6 °F 13.4 °F 12.2 °F 55% 30.04 in 10.0 mi WSW 18.4 mph - N/A   Clear
7:35 AM 28.4 °F 16.2 °F 12.2 °F 51% 30.05 in 10.0 mi WSW 17.3 mph - N/A   Clear
7:55 AM 30.2 °F 18.9 °F 12.2 °F 47% 30.06 in 10.0 mi WSW 16.1 mph - N/A   Clear
8:15 AM 33.8 °F 23.9 °F 12.2 °F 41% 30.07 in 10.0 mi WSW 15.0 mph 23.0 mph N/A   Clear
8:35 AM 33.8 °F 22.8 °F 12.2 °F 41% 30.07 in 10.0 mi SW 18.4 mph - N/A   Clear
8:55 AM 35.6 °F 25.5 °F 12.2 °F 38% 30.07 in 10.0 mi SW 17.3 mph - N/A   Clear
9:15 AM 39.2 °F 30.5 °F 15.8 °F 39% 30.09 in 10.0 mi SW 16.1 mph - N/A   Clear
9:35 AM 42.8 °F 33.8 °F 15.8 °F 34% 30.08 in 10.0 mi SW 21.9 mph 26.5 mph N/A   Clear
9:55 AM 44.6 °F 35.7 °F 15.8 °F 31% 30.08 in 10.0 mi WSW 24.2 mph 28.8 mph N/A   Clear
10:15 AM 46.4 °F 37.7 °F 15.8 °F 29% 30.06 in 10.0 mi WSW 26.5 mph 33.4 mph N/A   Clear
10:35 AM 48.2 °F - 15.8 °F 27% 30.06 in 10.0 mi WSW 27.6 mph 32.2 mph N/A   Clear
10:55 AM 48.2 °F - 15.8 °F 27% 30.06 in 10.0 mi WSW 24.2 mph 32.2 mph N/A   Clear
11:15 AM 50.0 °F - 15.8 °F 26% 30.06 in 10.0 mi WSW 24.2 mph 31.1 mph N/A   Clear
11:35 AM 51.8 °F - 15.8 °F 24% 30.05 in 10.0 mi WSW 21.9 mph 28.8 mph N/A   Clear
11:55 AM 53.6 °F - 15.8 °F 22% 30.03 in 10.0 mi West 24.2 mph - N/A   Clear
12:15 PM 55.4 °F - 15.8 °F 21% 30.03 in 10.0 mi WSW 24.2 mph 28.8 mph N/A   Clear
12:35 PM 55.4 °F - 15.8 °F 21% 30.02 in 10.0 mi WSW 25.3 mph 32.2 mph N/A   Clear
12:55 PM 55.4 °F - 15.8 °F 21% 30.02 in 10.0 mi WSW 24.2 mph 32.2 mph N/A   Clear
1:15 PM 57.2 °F - 15.8 °F 20% 30.01 in 10.0 mi West 28.8 mph 32.2 mph N/A   Clear
1:35 PM 57.2 °F - 14.0 °F 18% 30.01 in 10.0 mi WSW 21.9 mph 32.2 mph N/A   Clear
1:55 PM 57.2 °F - 14.0 °F 18% 30.01 in 10.0 mi WSW 23.0 mph 28.8 mph N/A   Clear
2:15 PM 57.2 °F - 14.0 °F 18% 30.01 in 10.0 mi WSW 24.2 mph - N/A   Clear
2:35 PM 57.2 °F - 14.0 °F 18% 30.01 in 10.0 mi WSW 23.0 mph 28.8 mph N/A   Clear
2:55 PM 57.2 °F - 12.2 °F 17% 30.01 in 10.0 mi WSW 20.7 mph 25.3 mph N/A   Clear
3:15 PM 57.2 °F - 12.2 °F 17% 30.01 in 10.0 mi WSW 21.9 mph 25.3 mph N/A   Clear
3:35 PM 57.2 °F - 12.2 °F 17% 30.02 in 10.0 mi WSW 20.7 mph - N/A   Clear
3:55 PM 55.4 °F - 12.2 °F 18% 30.02 in 10.0 mi WSW 15.0 mph - N/A   Clear
4:15 PM 55.4 °F - 10.4 °F 17% 30.02 in 10.0 mi WSW 15.0 mph - N/A   Clear
4:35 PM 51.8 °F - 10.4 °F 19% 30.02 in 10.0 mi SW 15.0 mph - N/A   Clear
5:15 PM 46.4 °F 40.7 °F 10.4 °F 23% 30.03 in 10.0 mi SW 12.7 mph - N/A   Clear
5:35 PM 44.6 °F 38.8 °F 10.4 °F 25% 30.04 in 10.0 mi SW 11.5 mph - N/A   Clear
5:55 PM 42.8 °F 36.2 °F 10.4 °F 27% 30.04 in 10.0 mi WSW 12.7 mph - N/A   Clear
6:15 PM 42.8 °F 36.6 °F 10.4 °F 27% 30.05 in 10.0 mi WSW 11.5 mph - N/A   Clear
6:35 PM 42.8 °F 38.0 °F 10.4 °F 27% 30.05 in 10.0 mi WSW 8.1 mph - N/A   Clear
6:55 PM 39.2 °F 33.0 °F 8.6 °F 28% 30.06 in 10.0 mi WSW 9.2 mph - N/A   Clear
7:15 PM 37.4 °F 30.3 °F 8.6 °F 30% 30.06 in 10.0 mi WSW 10.4 mph - N/A   Clear
7:35 PM 39.2 °F 31.6 °F 10.4 °F 31% 30.07 in 10.0 mi WSW 12.7 mph - N/A   Clear
7:55 PM 39.2 °F 32.5 °F 10.4 °F 31% 30.07 in 10.0 mi WSW 10.4 mph - N/A   Clear
8:35 PM 37.4 °F 30.3 °F 10.4 °F 33% 30.08 in 10.0 mi WSW 10.4 mph - N/A   Clear
8:55 PM 37.4 °F 29.3 °F 10.4 °F 33% 30.08 in 10.0 mi WSW 12.7 mph - N/A   Clear
9:15 PM 39.2 °F 31.2 °F 10.4 °F 31% 30.08 in 10.0 mi WSW 13.8 mph - N/A   Clear
9:35 PM 39.2 °F 30.8 °F 10.4 °F 31% 30.09 in 10.0 mi WSW 15.0 mph - N/A   Clear
9:55 PM 39.2 °F 31.2 °F 10.4 °F 31% 30.09 in 10.0 mi WSW 13.8 mph - N/A   Clear
10:15 PM 37.4 °F 29.3 °F 8.6 °F 30% 30.09 in 10.0 mi WSW 12.7 mph - N/A   Clear
10:35 PM 37.4 °F 28.9 °F 8.6 °F 30% 30.09 in 10.0 mi WSW 13.8 mph - N/A   Clear
10:55 PM 37.4 °F 30.3 °F 10.4 °F 33% 30.09 in 10.0 mi West 10.4 mph - N/A   Clear
11:15 PM 33.8 °F 25.3 °F 8.6 °F 35% 30.09 in 10.0 mi West 11.5 mph - N/A   Clear
11:35 PM 30.2 °F 24.3 °F 6.8 °F 37% 30.09 in 10.0 mi West 5.8 mph - N/A   Clear
11:55 PM 32.0 °F 26.4 °F 8.6 °F 38% 30.09 in 10.0 mi West 5.8 mph - N/A   Clear